Time;durP1;ratioP1;P1;durP2;ratioP2;P2;SDS_P1;SDS_P2;PMS_P1;PMS_P2;Temp;Humidity;BMP_temperature;BMP_pressure;BME280_temperature;BME280_humidity;BME280_pressure;Samples;Min_cycle;Max_cycle;Signal;HPM_P1;HPM_P2
2022/05/15 00:01:05;;;;;;;7.15;3.33;;;17.80;45.70;;;;;;5066141;28;20123;-47
2022/05/15 00:03:33;;;;;;;10.32;3.88;;;17.80;45.70;;;;;;5056742;28;20730;-47
2022/05/15 00:06:02;;;;;;;9.45;3.70;;;17.80;45.80;;;;;;5060152;28;20064;-46
2022/05/15 00:08:32;;;;;;;11.43;4.00;;;17.80;46.00;;;;;;5059853;28;20055;-48
2022/05/15 00:11:01;;;;;;;13.05;3.92;;;17.70;46.10;;;;;;5058483;28;20060;-48
2022/05/15 00:13:30;;;;;;;9.90;3.90;;;17.70;46.20;;;;;;5056974;28;20063;-51
2022/05/15 00:15:58;;;;;;;6.22;3.90;;;17.70;46.20;;;;;;5059568;28;20848;-47
2022/05/15 00:18:26;;;;;;;8.68;3.38;;;17.70;46.20;;;;;;5059306;28;20060;-49
2022/05/15 00:20:53;;;;;;;7.07;3.33;;;17.60;46.10;;;;;;5061405;28;20057;-47
2022/05/15 00:23:23;;;;;;;9.80;4.28;;;17.60;46.20;;;;;;5056766;28;20048;-46
2022/05/15 00:25:51;;;;;;;7.93;3.80;;;17.60;46.40;;;;;;5059492;28;20642;-48
2022/05/15 00:28:20;;;;;;;9.10;4.25;;;17.60;46.40;;;;;;5058897;28;20055;-47
2022/05/15 00:30:48;;;;;;;5.97;3.67;;;17.50;46.50;;;;;;5057602;28;20055;-47
2022/05/15 00:33:16;;;;;;;11.30;4.45;;;17.50;46.40;;;;;;5054862;28;20048;-47
2022/05/15 00:35:43;;;;;;;10.13;4.72;;;17.50;46.50;;;;;;5060132;28;20056;-45
2022/05/15 00:38:12;;;;;;;10.15;4.22;;;17.50;46.50;;;;;;5061044;28;20052;-45
2022/05/15 00:40:41;;;;;;;10.63;3.83;;;17.40;46.60;;;;;;5058953;28;20048;-48
2022/05/15 00:43:11;;;;;;;5.93;3.58;;;17.40;46.70;;;;;;5057542;28;20053;-47
2022/05/15 00:45:40;;;;;;;6.30;3.63;;;17.40;46.70;;;;;;5058631;28;20381;-45
2022/05/15 00:48:08;;;;;;;10.23;3.88;;;17.30;46.70;;;;;;5057941;28;20064;-49
2022/05/15 00:50:38;;;;;;;6.07;3.28;;;17.30;46.80;;;;;;5058368;28;20055;-47
2022/05/15 00:53:09;;;;;;;11.57;4.10;;;17.30;46.90;;;;;;5055683;28;20049;-51
2022/05/15 00:55:41;;;;;;;7.15;4.35;;;17.20;47.00;;;;;;5060141;28;20052;-47
2022/05/15 00:58:13;;;;;;;9.65;4.20;;;17.20;47.10;;;;;;5060249;28;20509;-47
2022/05/15 01:00:43;;;;;;;9.30;4.28;;;17.20;47.10;;;;;;5058239;28;20060;-49
2022/05/15 01:03:13;;;;;;;9.77;4.32;;;17.10;47.10;;;;;;5055595;28;20052;-50
2022/05/15 01:05:43;;;;;;;10.15;3.90;;;17.10;47.20;;;;;;5060676;28;20067;-47
2022/05/15 01:08:11;;;;;;;9.20;4.13;;;17.10;47.30;;;;;;5058446;28;20056;-47
2022/05/15 01:10:42;;;;;;;8.48;4.13;;;17.00;47.20;;;;;;5058343;28;20503;-48
2022/05/15 01:13:11;;;;;;;7.85;3.78;;;17.00;47.30;;;;;;5056924;28;20048;-45
2022/05/15 01:15:40;;;;;;;10.48;4.30;;;16.90;47.30;;;;;;5058006;28;20522;-49
2022/05/15 01:18:10;;;;;;;8.43;4.20;;;16.90;47.50;;;;;;5057831;28;20052;-48
2022/05/15 01:20:39;;;;;;;8.15;4.07;;;16.90;47.60;;;;;;5059853;28;20503;-46
2022/05/15 01:23:08;;;;;;;8.10;4.18;;;16.90;47.60;;;;;;5056422;28;20059;-48
2022/05/15 01:25:37;;;;;;;9.82;4.57;;;16.80;47.70;;;;;;5058423;28;20064;-48
2022/05/15 01:28:11;;;;;;;5.50;3.97;;;16.80;47.70;;;;;;5058517;28;20049;-50
2022/05/15 01:30:43;;;;;;;8.70;3.97;;;16.70;47.80;;;;;;5059003;28;20048;-46
2022/05/15 01:33:11;;;;;;;7.53;4.10;;;16.80;47.80;;;;;;5055720;28;20045;-49
2022/05/15 01:35:38;;;;;;;9.80;4.85;;;16.70;47.70;;;;;;5060893;28;20115;-49
2022/05/15 01:38:09;;;;;;;9.10;4.65;;;16.70;47.80;;;;;;5054869;28;20056;-51
2022/05/15 01:40:38;;;;;;;6.45;4.10;;;16.60;47.90;;;;;;5057147;28;20060;-46
2022/05/15 01:43:06;;;;;;;9.40;4.38;;;16.60;47.80;;;;;;5054895;28;20519;-49
2022/05/15 01:45:34;;;;;;;6.72;3.55;;;16.60;47.90;;;;;;5057131;28;20515;-47
2022/05/15 01:48:02;;;;;;;10.15;4.95;;;16.50;48.00;;;;;;5059211;28;20056;-45
2022/05/15 01:50:30;;;;;;;9.70;5.10;;;16.50;48.20;;;;;;5056375;28;20424;-46
2022/05/15 01:52:57;;;;;;;7.72;4.20;;;16.50;48.30;;;;;;5055043;28;20045;-47
2022/05/15 01:55:26;;;;;;;8.38;4.13;;;16.40;48.20;;;;;;5057984;28;20574;-50
2022/05/15 01:57:53;;;;;;;13.75;5.18;;;16.40;48.20;;;;;;5058405;28;20063;-51
2022/05/15 02:00:24;;;;;;;9.35;4.90;;;16.40;48.40;;;;;;5058266;28;20060;-46
2022/05/15 02:02:52;;;;;;;5.45;3.63;;;16.30;48.50;;;;;;5053758;28;20049;-48
2022/05/15 02:05:21;;;;;;;8.82;4.35;;;16.30;48.50;;;;;;5059705;28;20057;-46
2022/05/15 02:07:48;;;;;;;9.02;3.58;;;16.30;48.60;;;;;;5059504;28;20071;-47
2022/05/15 02:10:17;;;;;;;8.05;3.83;;;16.30;48.60;;;;;;5061017;28;20063;-50
2022/05/15 02:12:46;;;;;;;8.60;4.10;;;16.30;48.80;;;;;;5053697;28;20063;-47
2022/05/15 02:15:14;;;;;;;10.80;4.03;;;16.20;48.70;;;;;;5054267;28;20404;-48
2022/05/15 02:17:42;;;;;;;7.45;4.20;;;16.20;48.80;;;;;;5056744;28;20412;-46
2022/05/15 02:20:11;;;;;;;9.15;4.18;;;16.20;48.90;;;;;;5059576;28;20507;-47
2022/05/15 02:22:39;;;;;;;5.55;3.97;;;16.20;48.80;;;;;;5052942;28;20512;-50
2022/05/15 02:25:09;;;;;;;9.82;4.05;;;16.20;48.80;;;;;;5053319;28;20696;-51
2022/05/15 02:27:36;;;;;;;8.52;3.97;;;16.10;48.90;;;;;;5057163;28;20056;-51
2022/05/15 02:30:08;;;;;;;8.32;3.85;;;16.10;48.90;;;;;;5058211;28;20048;-49
2022/05/15 02:32:35;;;;;;;6.22;3.78;;;16.10;49.00;;;;;;5055446;28;20065;-49
2022/05/15 02:35:03;;;;;;;8.23;4.28;;;16.10;49.00;;;;;;5057782;28;20049;-50
2022/05/15 02:37:30;;;;;;;8.27;4.03;;;16.00;49.20;;;;;;5059548;28;20052;-49
2022/05/15 02:39:58;;;;;;;9.90;4.32;;;16.00;49.30;;;;;;5055925;28;20059;-49
2022/05/15 02:42:26;;;;;;;6.03;3.47;;;16.00;49.30;;;;;;5055585;28;20591;-51
2022/05/15 02:44:54;;;;;;;11.85;4.40;;;16.00;49.40;;;;;;5059766;28;20052;-49
2022/05/15 02:47:22;;;;;;;9.35;4.32;;;15.90;49.40;;;;;;5060725;28;20058;-50
2022/05/15 02:52:35;;;;;;;12.05;4.25;;;15.90;49.50;;;;;;5066174;28;20064;-46
2022/05/15 02:55:02;;;;;;;7.88;4.38;;;15.90;49.50;;;;;;5063590;28;20052;-52
2022/05/15 02:57:30;;;;;;;9.98;4.28;;;15.80;49.50;;;;;;5063907;28;20055;-49
2022/05/15 02:59:57;;;;;;;6.30;4.30;;;15.80;49.40;;;;;;5061983;28;20059;-50
2022/05/15 03:02:26;;;;;;;8.85;4.15;;;15.80;49.30;;;;;;5053994;28;20048;-51
2022/05/15 03:04:54;;;;;;;5.65;3.75;;;15.70;49.30;;;;;;5063245;28;20067;-50
2022/05/15 03:07:21;;;;;;;8.85;4.53;;;15.70;49.40;;;;;;5058040;28;20598;-49
2022/05/15 03:09:48;;;;;;;7.18;4.55;;;15.70;50.00;;;;;;5058879;28;20048;-49
2022/05/15 03:12:16;;;;;;;13.68;4.72;;;15.60;49.50;;;;;;5059793;28;20052;-51
2022/05/15 03:14:43;;;;;;;12.13;4.78;;;15.60;49.70;;;;;;5060763;28;20407;-47
2022/05/15 03:17:11;;;;;;;9.35;5.00;;;15.60;49.90;;;;;;5060813;28;20052;-50
2022/05/15 03:19:39;;;;;;;10.30;5.43;;;15.60;50.10;;;;;;5061353;28;20059;-46
2022/05/15 03:22:07;;;;;;;8.68;4.90;;;15.50;50.20;;;;;;5060018;28;20052;-47
2022/05/15 03:24:34;;;;;;;13.55;5.65;;;15.50;50.20;;;;;;5063145;28;20056;-49
2022/05/15 03:27:02;;;;;;;8.75;5.20;;;15.50;50.30;;;;;;5062033;28;20056;-48
2022/05/15 03:29:29;;;;;;;7.97;5.00;;;15.40;50.40;;;;;;5061677;28;20060;-51
2022/05/15 03:31:57;;;;;;;11.75;5.25;;;15.40;50.40;;;;;;5057648;28;20056;-47
2022/05/15 03:34:25;;;;;;;6.97;4.82;;;15.40;50.60;;;;;;5061766;28;20045;-50
2022/05/15 03:36:54;;;;;;;12.25;4.97;;;15.40;50.60;;;;;;5061649;28;20408;-49
2022/05/15 03:39:23;;;;;;;10.48;5.72;;;15.40;50.60;;;;;;5063096;28;20060;-49
2022/05/15 03:41:51;;;;;;;12.25;5.68;;;15.30;50.70;;;;;;5058338;28;20611;-47
2022/05/15 03:44:18;;;;;;;13.38;5.90;;;15.30;50.70;;;;;;5069868;28;20138;-51
2022/05/15 03:46:46;;;;;;;10.38;4.75;;;15.30;50.70;;;;;;5069677;28;20048;-49
2022/05/15 03:49:14;;;;;;;21.67;5.22;;;15.30;50.70;;;;;;5061926;28;20049;-47
2022/05/15 03:51:42;;;;;;;8.43;4.50;;;15.20;50.60;;;;;;5060334;28;20059;-46
2022/05/15 03:54:11;;;;;;;9.93;4.80;;;15.20;50.70;;;;;;5043413;28;20055;-50
2022/05/15 03:56:52;;;;;;;11.05;5.18;;;15.20;50.80;;;;;;5044173;28;20060;-49
2022/05/15 03:59:22;;;;;;;10.20;5.32;;;15.20;50.80;;;;;;5045858;28;20056;-47
2022/05/15 04:01:50;;;;;;;7.68;4.45;;;15.10;50.80;;;;;;5044019;28;20048;-50
2022/05/15 04:04:17;;;;;;;11.13;4.50;;;15.10;50.90;;;;;;5046289;28;20068;-47
2022/05/15 04:06:45;;;;;;;11.13;4.93;;;15.10;51.00;;;;;;5046739;28;20057;-46
2022/05/15 04:09:14;;;;;;;8.30;4.80;;;15.10;51.00;;;;;;5047091;28;20064;-50
2022/05/15 04:11:42;;;;;;;6.80;4.25;;;15.10;51.10;;;;;;5046612;28;20056;-47
2022/05/15 04:14:09;;;;;;;9.98;4.78;;;15.10;51.10;;;;;;5042992;28;20041;-46
2022/05/15 04:16:37;;;;;;;8.10;4.90;;;15.00;51.20;;;;;;5043590;28;20058;-49
2022/05/15 04:19:05;;;;;;;8.95;4.53;;;15.00;51.20;;;;;;5044365;28;20083;-47
2022/05/15 04:21:37;;;;;;;7.85;4.53;;;15.00;51.20;;;;;;5043779;28;20064;-47
2022/05/15 04:24:06;;;;;;;9.15;4.45;;;15.00;51.20;;;;;;5043757;28;20052;-48
2022/05/15 04:26:36;;;;;;;9.77;5.28;;;15.00;51.30;;;;;;5041950;28;20680;-48
2022/05/15 04:29:04;;;;;;;10.43;4.90;;;15.00;51.50;;;;;;5043610;28;20048;-49
2022/05/15 04:31:33;;;;;;;9.65;4.45;;;15.00;51.50;;;;;;5041611;28;20382;-50
2022/05/15 04:34:01;;;;;;;25.27;11.68;;;15.00;51.50;;;;;;5041923;28;20056;-47
2022/05/15 04:36:29;;;;;;;14.95;7.18;;;15.00;51.70;;;;;;5042320;28;20135;-49
2022/05/15 04:38:57;;;;;;;16.73;7.68;;;15.00;51.90;;;;;;5042115;28;20053;-49
2022/05/15 04:41:25;;;;;;;14.57;6.22;;;15.00;51.90;;;;;;5041906;28;20350;-50
2022/05/15 04:43:54;;;;;;;8.02;5.05;;;15.00;52.00;;;;;;5041728;28;20049;-46
2022/05/15 04:46:22;;;;;;;8.63;5.00;;;15.10;52.20;;;;;;5040808;28;20053;-49
2022/05/15 04:48:49;;;;;;;11.63;4.88;;;15.10;52.10;;;;;;5039991;28;20057;-51
2022/05/15 04:51:17;;;;;;;8.57;5.10;;;15.10;52.20;;;;;;5041264;28;20484;-49
2022/05/15 04:53:44;;;;;;;10.25;4.90;;;15.10;52.20;;;;;;5042458;28;20057;-48
2022/05/15 04:56:11;;;;;;;13.93;4.63;;;15.20;52.40;;;;;;5040999;28;20048;-48
2022/05/15 04:58:39;;;;;;;8.52;4.70;;;15.20;52.50;;;;;;5042201;28;20060;-49
2022/05/15 05:01:08;;;;;;;6.03;4.05;;;15.20;52.50;;;;;;5040353;28;20056;-46
2022/05/15 05:03:35;;;;;;;11.77;5.10;;;15.20;52.60;;;;;;5040305;28;20113;-50
2022/05/15 05:06:03;;;;;;;11.18;5.40;;;15.30;52.70;;;;;;5041854;28;20045;-47
2022/05/15 05:08:31;;;;;;;9.90;4.90;;;15.30;52.80;;;;;;5041799;28;20056;-47
2022/05/15 05:10:59;;;;;;;10.65;4.68;;;15.30;52.80;;;;;;5039886;28;20056;-49
2022/05/15 05:13:26;;;;;;;7.80;4.50;;;15.40;52.80;;;;;;5039345;28;20698;-48
2022/05/15 05:15:54;;;;;;;6.43;4.10;;;15.40;52.80;;;;;;5041275;28;20060;-47
2022/05/15 05:18:22;;;;;;;7.03;4.00;;;15.40;52.80;;;;;;5040657;28;20135;-47
2022/05/15 05:20:50;;;;;;;6.53;3.67;;;15.50;52.90;;;;;;5041192;28;20059;-49
2022/05/15 05:23:17;;;;;;;6.47;4.13;;;15.50;52.80;;;;;;5040733;28;20064;-47
2022/05/15 05:25:45;;;;;;;8.70;4.28;;;15.60;52.80;;;;;;5041515;28;20505;-47
2022/05/15 05:28:12;;;;;;;7.10;3.90;;;15.60;52.90;;;;;;5041156;28;20084;-50
2022/05/15 05:30:39;;;;;;;11.88;4.68;;;15.60;52.90;;;;;;5041946;28;20080;-46
2022/05/15 05:33:07;;;;;;;12.43;4.95;;;15.60;53.00;;;;;;5041607;28;20048;-50
2022/05/15 05:35:37;;;;;;;7.97;4.45;;;15.70;53.20;;;;;;5041557;28;20056;-47
2022/05/15 05:38:06;;;;;;;14.70;5.13;;;15.70;53.30;;;;;;5041817;28;20053;-50
2022/05/15 05:40:34;;;;;;;8.85;4.25;;;15.70;53.20;;;;;;5041931;28;20055;-46
2022/05/15 05:43:02;;;;;;;8.38;4.05;;;15.80;53.30;;;;;;5041440;28;20048;-50
2022/05/15 05:45:29;;;;;;;8.70;3.92;;;15.80;53.30;;;;;;5042452;28;20045;-49
2022/05/15 05:47:57;;;;;;;9.25;4.38;;;15.90;53.40;;;;;;5041112;28;20059;-46
2022/05/15 05:50:27;;;;;;;7.95;4.13;;;16.00;53.50;;;;;;5041587;28;20057;-47
2022/05/15 05:52:57;;;;;;;9.70;4.03;;;16.00;53.50;;;;;;5042449;28;20056;-47
2022/05/15 05:55:26;;;;;;;14.73;4.93;;;16.10;54.10;;;;;;5043533;28;20048;-47
2022/05/15 05:57:54;;;;;;;8.90;4.85;;;16.10;53.70;;;;;;5043501;28;20390;-49
2022/05/15 06:00:24;;;;;;;7.55;3.90;;;16.20;53.80;;;;;;5042124;28;20416;-49
2022/05/15 06:02:52;;;;;;;8.00;3.97;;;16.30;53.80;;;;;;5040548;28;20068;-50
2022/05/15 06:05:19;;;;;;;7.38;3.63;;;16.30;53.70;;;;;;5043522;28;20531;-50
2022/05/15 06:07:46;;;;;;;13.52;4.95;;;16.40;53.70;;;;;;5041458;28;20052;-47
2022/05/15 06:10:15;;;;;;;11.68;4.00;;;16.50;53.70;;;;;;5042748;28;20053;-46
2022/05/15 06:12:43;;;;;;;11.25;4.53;;;16.60;53.80;;;;;;5042004;28;20056;-51
2022/05/15 06:15:11;;;;;;;7.43;4.18;;;16.70;53.90;;;;;;5047085;28;20044;-47
2022/05/15 06:17:39;;;;;;;15.43;4.93;;;16.70;54.00;;;;;;5045786;28;20402;-47
2022/05/15 06:20:10;;;;;;;11.63;5.50;;;16.80;54.00;;;;;;5046834;28;20057;-47
2022/05/15 06:22:37;;;;;;;9.70;4.25;;;16.90;54.00;;;;;;5047300;28;20052;-52
2022/05/15 06:25:06;;;;;;;10.25;4.25;;;17.00;53.80;;;;;;5045518;28;20049;-46
2022/05/15 06:27:34;;;;;;;8.05;4.18;;;17.10;53.80;;;;;;5045126;28;20048;-47
2022/05/15 06:30:02;;;;;;;10.90;5.25;;;17.20;53.80;;;;;;5046317;28;20057;-46
2022/05/15 06:32:29;;;;;;;8.25;4.28;;;17.30;53.70;;;;;;5043788;28;20057;-50
2022/05/15 06:34:57;;;;;;;10.27;5.35;;;17.40;53.70;;;;;;5046843;28;20060;-48
2022/05/15 06:37:24;;;;;;;11.32;6.07;;;17.40;53.70;;;;;;5045253;28;20068;-49
2022/05/15 06:39:51;;;;;;;8.63;4.32;;;17.50;53.50;;;;;;5044176;28;20505;-47
2022/05/15 06:42:19;;;;;;;11.07;5.18;;;17.60;53.40;;;;;;5043228;28;20127;-46
2022/05/15 06:44:48;;;;;;;8.50;4.18;;;17.70;53.40;;;;;;5044899;28;20057;-49
2022/05/15 06:47:16;;;;;;;12.63;4.53;;;17.80;53.20;;;;;;5044455;28;20044;-49
2022/05/15 06:49:44;;;;;;;11.77;4.40;;;17.90;53.20;;;;;;5044476;28;20454;-48
2022/05/15 06:52:11;;;;;;;12.90;5.22;;;18.00;53.30;;;;;;5042662;28;20053;-47
2022/05/15 06:54:38;;;;;;;8.63;3.85;;;18.10;53.30;;;;;;5044246;28;20511;-50
2022/05/15 06:59:52;;;;;;;8.75;4.22;;;18.20;53.30;;;;;;5050450;28;20064;-47
2022/05/15 07:02:20;;;;;;;10.80;4.03;;;18.30;53.30;;;;;;5041342;28;21386;-49
2022/05/15 07:04:48;;;;;;;10.15;4.00;;;18.30;53.20;;;;;;5045485;28;20057;-49
2022/05/15 07:07:15;;;;;;;13.05;4.68;;;18.40;53.00;;;;;;5044828;28;20496;-48
2022/05/15 07:09:42;;;;;;;7.95;3.22;;;18.50;52.90;;;;;;5042012;28;20378;-46
2022/05/15 07:12:10;;;;;;;8.90;3.38;;;18.60;52.80;;;;;;5041685;28;20052;-48
2022/05/15 07:14:37;;;;;;;7.45;3.50;;;18.60;52.70;;;;;;5039115;28;20048;-51
2022/05/15 07:17:07;;;;;;;10.32;3.53;;;18.70;52.70;;;;;;5042283;28;20052;-50
2022/05/15 07:19:35;;;;;;;8.35;3.88;;;18.80;52.70;;;;;;5043088;28;20056;-48
2022/05/15 07:22:03;;;;;;;9.52;3.85;;;18.80;52.20;;;;;;5043788;28;20060;-48
2022/05/15 07:24:30;;;;;;;8.45;3.65;;;18.90;52.00;;;;;;5043572;28;20496;-47
2022/05/15 07:26:58;;;;;;;9.50;3.30;;;19.00;52.00;;;;;;5043695;28;20052;-47
2022/05/15 07:29:25;;;;;;;8.95;3.50;;;19.10;51.80;;;;;;5044602;28;20059;-48
2022/05/15 07:31:54;;;;;;;12.05;3.67;;;19.20;51.70;;;;;;5041063;28;20107;-47
2022/05/15 07:34:23;;;;;;;9.25;3.00;;;19.20;51.60;;;;;;5044563;28;20416;-47
2022/05/15 07:36:52;;;;;;;10.20;3.63;;;19.30;51.40;;;;;;5044164;28;20049;-49
2022/05/15 07:39:21;;;;;;;11.15;3.40;;;19.40;51.50;;;;;;5033930;28;20057;-49
2022/05/15 07:41:50;;;;;;;9.27;3.25;;;19.40;51.20;;;;;;5043828;28;20052;-48
2022/05/15 07:44:17;;;;;;;9.63;3.47;;;19.50;51.20;;;;;;5043197;28;20431;-46
2022/05/15 07:46:45;;;;;;;5.82;2.60;;;19.60;51.10;;;;;;5043617;28;20412;-50
2022/05/15 07:49:13;;;;;;;6.95;3.05;;;19.60;50.90;;;;;;5042702;28;20053;-50
2022/05/15 07:51:44;;;;;;;9.15;2.92;;;19.70;51.00;;;;;;5043671;28;20518;-47
2022/05/15 07:54:12;;;;;;;10.20;3.65;;;19.80;50.20;;;;;;5043316;28;20056;-50
2022/05/15 07:56:40;;;;;;;12.88;3.28;;;19.90;50.40;;;;;;5043751;28;20049;-48
2022/05/15 07:59:07;;;;;;;10.65;3.05;;;20.00;50.30;;;;;;5044197;28;20041;-50
2022/05/15 08:01:35;;;;;;;11.45;3.42;;;20.10;50.30;;;;;;5042956;28;20556;-51
2022/05/15 08:04:03;;;;;;;8.10;3.05;;;20.10;50.00;;;;;;5043349;28;20055;-48
2022/05/15 08:09:16;;;;;;;7.28;2.65;;;20.30;49.80;;;;;;5051057;28;20068;-51
2022/05/15 08:11:44;;;;;;;10.90;3.10;;;20.40;49.80;;;;;;5041406;28;20049;-49
2022/05/15 08:14:12;;;;;;;7.55;2.63;;;20.50;49.60;;;;;;5043827;28;20056;-50
2022/05/15 08:16:40;;;;;;;9.18;2.83;;;20.50;49.30;;;;;;5042734;28;20068;-48
2022/05/15 08:24:41;;;;;;;14.07;2.92;;;20.80;48.60;;;;;;5045043;28;20075;-47
2022/05/15 08:27:11;;;;;;;10.75;2.80;;;20.80;48.20;;;;;;5044597;28;20056;-50
2022/05/15 08:29:39;;;;;;;12.27;3.00;;;20.90;48.00;;;;;;5042466;28;20051;-52
2022/05/15 08:32:08;;;;;;;13.70;2.75;;;21.00;48.10;;;;;;5041841;28;20053;-49
2022/05/15 08:34:36;;;;;;;15.68;3.85;;;21.10;47.80;;;;;;5040610;28;20061;-49
2022/05/15 08:37:04;;;;;;;10.65;2.78;;;21.10;47.30;;;;;;5024663;28;20485;-51
2022/05/15 08:39:32;;;;;;;7.97;2.60;;;21.10;47.30;;;;;;5042505;28;20045;-50
2022/05/15 08:42:15;;;;;;;9.43;2.50;;;21.20;47.40;;;;;;5043143;28;20059;-48
2022/05/15 08:44:45;;;;;;;9.70;2.92;;;21.20;47.20;;;;;;5042593;28;20048;-52
2022/05/15 08:47:26;;;;;;;4.85;2.25;;;21.30;47.40;;;;;;5042809;28;20060;-49
2022/05/15 08:49:57;;;;;;;8.60;2.70;;;21.40;47.20;;;;;;5042749;28;20504;-48
2022/05/15 08:52:30;;;;;;;11.77;2.78;;;21.40;47.10;;;;;;5041732;28;20083;-47
2022/05/15 08:55:04;;;;;;;7.27;2.60;;;21.40;46.90;;;;;;5042920;28;20484;-47
2022/05/15 08:57:40;;;;;;;7.63;2.65;;;21.50;47.00;;;;;;5042259;28;21026;-52
2022/05/15 09:00:11;;;;;;;9.25;2.92;;;21.50;46.80;;;;;;5043406;28;20057;-49
2022/05/15 09:02:43;;;;;;;10.43;3.08;;;21.60;46.70;;;;;;5040258;28;20398;-50
2022/05/15 09:05:13;;;;;;;8.25;2.38;;;21.70;46.70;;;;;;5039711;28;20048;-48
2022/05/15 09:07:49;;;;;;;11.65;3.25;;;21.70;47.00;;;;;;5042983;28;20420;-49
2022/05/15 09:10:25;;;;;;;7.75;2.58;;;21.80;46.40;;;;;;5041686;28;20132;-52
2022/05/15 09:13:01;;;;;;;6.40;2.45;;;21.90;46.60;;;;;;5038046;28;20068;-50
2022/05/15 09:15:31;;;;;;;3.95;2.08;;;21.90;46.40;;;;;;5040571;28;20057;-47
2022/05/15 09:18:03;;;;;;;7.60;2.47;;;22.00;46.30;;;;;;5040422;28;20053;-49
2022/05/15 09:20:47;;;;;;;6.28;2.60;;;22.10;46.10;;;;;;5043269;28;20405;-49
2022/05/15 09:23:24;;;;;;;7.45;2.55;;;22.20;45.60;;;;;;5040649;28;20057;-49
2022/05/15 09:25:54;;;;;;;11.65;2.95;;;22.20;45.50;;;;;;5041719;28;20057;-48
2022/05/15 09:28:26;;;;;;;6.70;2.30;;;22.20;45.50;;;;;;5041663;28;20060;-50
2022/05/15 09:30:56;;;;;;;6.47;2.25;;;22.20;45.20;;;;;;5041762;28;20061;-51
2022/05/15 09:33:30;;;;;;;9.48;2.67;;;22.30;45.50;;;;;;5041143;28;20064;-46
2022/05/15 09:36:23;;;;;;;9.13;2.60;;;22.30;45.40;;;;;;5040896;28;20052;-48
2022/05/15 09:39:10;;;;;;;5.63;2.22;;;22.40;45.30;;;;;;5039449;28;20052;-48
2022/05/15 09:44:31;;;;;;;8.98;2.22;;;22.50;45.60;;;;;;5047170;28;20059;-51
2022/05/15 09:47:00;;;;;;;8.45;2.60;;;22.50;45.40;;;;;;5039770;28;20613;-49
2022/05/15 09:49:33;;;;;;;6.40;2.15;;;22.50;45.30;;;;;;5041445;28;20069;-48
2022/05/15 09:52:07;;;;;;;7.68;2.67;;;22.50;45.20;;;;;;5040093;28;20099;-47
2022/05/15 09:54:43;;;;;;;4.40;1.80;;;22.60;45.10;;;;;;5042240;28;20408;-47
2022/05/15 09:57:17;;;;;;;7.70;2.45;;;22.60;45.00;;;;;;5039587;28;20048;-52
2022/05/15 09:59:59;;;;;;;5.23;2.10;;;22.60;44.70;;;;;;5041121;28;20063;-52
2022/05/15 10:02:37;;;;;;;8.43;2.58;;;22.70;44.70;;;;;;5039970;28;20057;-47
2022/05/15 10:05:13;;;;;;;4.97;2.13;;;22.80;44.80;;;;;;5041767;28;20072;-49
2022/05/15 10:07:44;;;;;;;7.85;2.03;;;22.80;44.70;;;;;;5044375;28;20052;-46
2022/05/15 10:10:18;;;;;;;12.55;2.40;;;22.90;44.70;;;;;;5041554;28;20068;-53
2022/05/15 10:12:47;;;;;;;8.47;2.40;;;22.90;44.50;;;;;;5037742;28;20056;-51
2022/05/15 10:15:17;;;;;;;5.53;1.80;;;23.00;44.40;;;;;;5040782;28;20495;-47
2022/05/15 10:17:53;;;;;;;6.72;1.92;;;23.10;44.10;;;;;;5040415;28;20055;-46
2022/05/15 10:20:24;;;;;;;5.95;2.20;;;23.10;43.80;;;;;;5041526;28;20064;-50
2022/05/15 10:22:58;;;;;;;4.18;1.55;;;23.20;43.60;;;;;;5039666;28;20053;-51
2022/05/15 10:25:34;;;;;;;5.35;1.90;;;23.20;43.80;;;;;;5042146;28;20060;-48
2022/05/15 10:28:10;;;;;;;4.82;1.70;;;23.30;43.40;;;;;;5042149;28;20045;-49
2022/05/15 10:30:49;;;;;;;6.88;2.40;;;23.30;42.90;;;;;;5040095;28;20056;-46
2022/05/15 10:33:19;;;;;;;8.60;2.17;;;23.40;42.80;;;;;;5038983;28;20500;-46
2022/05/15 10:35:52;;;;;;;6.20;1.80;;;23.50;42.60;;;;;;5042596;28;20059;-48
2022/05/15 10:38:35;;;;;;;4.38;1.70;;;23.50;42.40;;;;;;5040670;28;20045;-51
2022/05/15 10:41:13;;;;;;;7.97;2.13;;;23.60;41.40;;;;;;5041304;28;20057;-48
2022/05/15 10:44:10;;;;;;;8.35;1.75;;;23.70;41.30;;;;;;5039055;28;20061;-46
2022/05/15 10:46:46;;;;;;;7.18;1.65;;;23.70;41.20;;;;;;5033766;28;20057;-46
2022/05/15 10:49:37;;;;;;;5.18;2.03;;;23.80;40.90;;;;;;5041064;28;20505;-46
2022/05/15 10:52:14;;;;;;;5.85;1.85;;;23.80;40.90;;;;;;5042797;28;20059;-47
2022/05/15 10:57:50;;;;;;;6.40;1.50;;;23.90;40.40;;;;;;5048290;28;20075;-48
2022/05/15 11:00:23;;;;;;;5.53;1.85;;;23.90;39.80;;;;;;5044815;28;20061;-49
2022/05/15 11:03:18;;;;;;;6.40;1.90;;;23.90;39.40;;;;;;5044111;28;20060;-48
2022/05/15 11:06:00;;;;;;;5.70;1.40;;;24.00;40.00;;;;;;5045346;28;20055;-47
2022/05/15 11:08:38;;;;;;;5.68;1.60;;;24.00;40.40;;;;;;5045028;28;20420;-49
2022/05/15 11:11:16;;;;;;;5.85;1.88;;;24.00;39.50;;;;;;5045284;28;20060;-47
2022/05/15 11:13:54;;;;;;;5.00;1.65;;;24.10;38.80;;;;;;5045160;28;20484;-47
2022/05/15 11:16:32;;;;;;;6.00;1.98;;;24.10;38.90;;;;;;5046186;28;20057;-47
2022/05/15 11:19:24;;;;;;;4.93;1.58;;;24.20;39.60;;;;;;5044744;28;20053;-50
2022/05/15 11:21:59;;;;;;;5.47;1.40;;;24.20;39.40;;;;;;5044163;28;20057;-46
2022/05/15 11:24:37;;;;;;;7.70;1.92;;;24.20;39.20;;;;;;5044859;28;20420;-49
2022/05/15 11:27:15;;;;;;;5.88;1.63;;;24.30;38.50;;;;;;5044670;28;20048;-48
2022/05/15 11:29:46;;;;;;;4.70;1.83;;;24.40;38.50;;;;;;5044162;28;20381;-47
2022/05/15 11:32:49;;;;;;;5.50;1.67;;;24.40;38.70;;;;;;5043012;28;20060;-49
2022/05/15 11:35:28;;;;;;;4.00;1.30;;;24.40;38.30;;;;;;5043626;28;20049;-50
2022/05/15 11:38:22;;;;;;;3.08;1.52;;;24.50;37.50;;;;;;5044012;28;20458;-49
2022/05/15 11:40:51;;;;;;;5.97;1.50;;;24.50;37.50;;;;;;5025371;28;20057;-48
2022/05/15 11:43:34;;;;;;;8.43;1.35;;;24.60;37.90;;;;;;5041402;28;20420;-47
2022/05/15 11:46:05;;;;;;;3.45;1.30;;;24.70;37.20;;;;;;5041964;28;20119;-47
2022/05/15 11:48:49;;;;;;;3.05;1.42;;;24.80;36.90;;;;;;5042615;28;20049;-48
2022/05/15 11:51:27;;;;;;;8.15;1.42;;;24.80;36.20;;;;;;5043466;28;20057;-51
2022/05/15 11:53:57;;;;;;;5.57;1.30;;;24.90;36.20;;;;;;5042944;28;20496;-46
2022/05/15 11:56:27;;;;;;;6.20;1.55;;;25.00;36.50;;;;;;5043665;28;20049;-49
2022/05/15 11:58:56;;;;;;;5.00;1.33;;;25.00;36.20;;;;;;5043100;28;20519;-49
2022/05/15 12:01:46;;;;;;;4.60;1.52;;;25.10;35.90;;;;;;5043574;28;20496;-48
2022/05/15 12:04:22;;;;;;;4.38;1.52;;;25.10;35.50;;;;;;5042486;28;20053;-49
2022/05/15 12:07:32;;;;;;;4.53;1.30;;;25.20;35.60;;;;;;5042616;28;20060;-47
2022/05/15 12:09:59;;;;;;;5.40;1.95;;;25.20;35.40;;;;;;5045372;28;20409;-47
2022/05/15 12:12:46;;;;;;;2.58;1.30;;;25.30;35.80;;;;;;5043285;28;20064;-45
2022/05/15 12:15:34;;;;;;;4.72;1.40;;;25.30;35.10;;;;;;5043657;28;20060;-46
2022/05/15 12:18:30;;;;;;;6.22;1.50;;;25.40;35.10;;;;;;5042073;28;20076;-46
2022/05/15 12:20:59;;;;;;;4.95;1.40;;;25.40;35.40;;;;;;5043531;28;20056;-46
2022/05/15 12:23:36;;;;;;;3.40;1.60;;;25.40;35.10;;;;;;5042349;28;20063;-50
2022/05/15 12:26:17;;;;;;;3.72;1.35;;;25.50;34.50;;;;;;5042672;28;20487;-47
2022/05/15 12:28:56;;;;;;;5.53;1.50;;;25.50;34.40;;;;;;5044592;28;20052;-49
2022/05/15 12:31:29;;;;;;;4.25;1.60;;;25.60;33.80;;;;;;5043275;28;20374;-49
2022/05/15 12:34:06;;;;;;;4.70;1.50;;;25.60;34.00;;;;;;5042021;28;20405;-46
2022/05/15 12:36:37;;;;;;;4.50;1.40;;;25.60;34.20;;;;;;5044469;28;20420;-49
2022/05/15 12:39:06;;;;;;;7.70;1.58;;;25.60;34.00;;;;;;5043777;28;20400;-46
2022/05/15 12:41:37;;;;;;;2.95;1.25;;;25.70;33.80;;;;;;5041219;28;20045;-47
2022/05/15 12:44:07;;;;;;;3.95;1.30;;;25.60;33.90;;;;;;5042768;28;20500;-47
2022/05/15 12:46:37;;;;;;;6.00;1.25;;;25.70;33.90;;;;;;5043703;28;20416;-47
2022/05/15 12:49:06;;;;;;;3.67;1.38;;;25.70;34.00;;;;;;5041520;28;20049;-47
2022/05/15 12:51:35;;;;;;;4.32;1.50;;;25.70;34.10;;;;;;5042285;28;20053;-47
2022/05/15 12:54:21;;;;;;;7.32;1.80;;;25.70;33.90;;;;;;5042929;28;20064;-46
2022/05/15 12:56:58;;;;;;;3.78;1.60;;;25.70;33.70;;;;;;5042325;28;20505;-48
2022/05/15 12:59:27;;;;;;;2.97;1.38;;;25.80;33.80;;;;;;5041969;28;20052;-48
2022/05/15 13:01:55;;;;;;;4.88;1.92;;;25.80;33.80;;;;;;5040177;28;20072;-49
2022/05/15 13:04:26;;;;;;;4.00;1.65;;;25.80;33.80;;;;;;5041051;28;20063;-49
2022/05/15 13:06:55;;;;;;;4.78;1.50;;;25.80;33.70;;;;;;5042129;28;20049;-47
2022/05/15 13:09:27;;;;;;;3.58;1.60;;;25.80;33.80;;;;;;5042081;28;20103;-47
2022/05/15 13:11:57;;;;;;;5.40;1.55;;;25.70;33.60;;;;;;5041958;28;20060;-46
2022/05/15 13:14:29;;;;;;;3.65;1.65;;;25.70;33.90;;;;;;5042950;28;20057;-47
2022/05/15 13:16:57;;;;;;;3.60;1.42;;;25.70;33.70;;;;;;5040627;28;20059;-46
2022/05/15 13:19:29;;;;;;;3.08;1.33;;;25.70;33.60;;;;;;5041602;28;20049;-45
2022/05/15 13:21:58;;;;;;;3.30;1.40;;;25.80;33.60;;;;;;5042005;28;20063;-49